Snake Valley, Nevada Weather observations

Data are for 10 minute period ending at time listed.
 Day   Time   Solar   Ave.   Ave.  Ave.  Vector  Max.   Baro.   Total    
  of    of     Rad.   Air    Rel.  Wind   Wind   Wind  Press.  Precip.   
Year   Day            Temp.  Hum.  Speed  Dir.   Gust                    
2014   (PST)  Kw/m2    F      %     mph   deg.    mph    mb.     in.     
-------------------------------------------------------------------------
 351   13:50   0.14   40.0    60    3.8   310     5.1   838.4    0.00 
 351   14:00   0.12   40.1    60    3.7   332     5.3   838.4    0.00 
 351   14:10   0.10   40.1    61    4.1   320     6.5   838.4    0.00 
 351   14:20   0.08   39.8    61    4.4   329     6.1   838.4    0.00 
 351   14:30   0.07   39.7    61    4.8   333     6.9   838.4    0.00 
 351   14:40   0.05   39.5    62    5.2   340     6.8   838.4    0.00 
 351   14:50   0.04   39.5    62    4.9   326     6.2   838.5    0.00 
 351   15:00   0.05   39.5    62    4.9   335     6.5   838.6    0.00 
 351   15:10   0.04   39.5    62    4.4   334     6.4   838.7    0.00 
 351   15:20   0.03   39.5    63    2.2   346     4.5   838.7    0.00 
 351   15:30   0.02   39.3    64    2.5   337     3.3   838.7    0.00 
 351   15:40   0.02   39.1    65    2.4   324     3.1   838.8    0.00 
 351   15:50   0.02   38.8    67    2.4   324     3.0   838.9    0.00 
 351   16:00   0.01   38.6    68    1.5   323     1.8   838.9    0.00 
 351   16:10   0.01   37.7    70    3.3   279     3.9   839.0    0.00 
 351   16:20   0.00   37.2    72    3.0   293     3.7   839.0    0.00 
 351   16:30   0.00   36.8    73    3.6   290     4.2   839.0    0.00 
 351   16:40   0.00   36.9    73    3.7   292     5.9   839.0    0.00 
 351   16:50   0.00   37.4    70    5.3   291     6.7   839.1    0.00 
 351   17:00   0.00   37.1    70    5.2   283     6.6   839.3    0.00 
 351   17:10   0.00   37.2    70    5.7   299     7.0   839.4    0.00 
 351   17:20   0.00   37.1    70    4.2   293     5.6   839.6    0.00 
 351   17:30   0.00   36.5    72    2.5   324     3.8   839.7    0.00 
 351   17:40   0.00   36.5    70    2.7   328     3.9   839.8    0.00 
 351   17:50   0.00   36.5    73    2.9   315     3.6   839.8    0.00 
 351   18:00   0.00   36.2    74    1.7   323     2.5   840.0    0.00 
 351   18:10   0.00   36.2    74    2.1   311     3.0   840.0    0.00 
 351   18:20   0.00   35.7    75    0.8   357     1.8   840.0    0.00 
 351   18:30   0.00   34.2    75    1.7    94     3.1   840.1    0.00 
 351   18:40   0.00   32.7    79    1.0   218     3.9   840.1    0.00 
 351   18:50   0.00   32.0    79    4.0   206     5.2   840.1    0.00 
 351   19:00   0.00   30.6    81    4.5   193     5.3   840.2    0.00 
 351   19:10   0.00   29.6    82    4.1   193     4.9   840.3    0.00 
 351   19:20   0.00   28.5    83    3.7   196     5.1   840.2    0.00 
 351   19:30   0.00   27.9    84    4.0   198     4.8   840.2    0.00 
 351   19:40   0.00   27.3    85    2.3   263     3.9   840.3    0.00 
 351   19:50   0.00   27.9    86    2.2   240     3.6   840.4    0.00 
 351   20:00   0.00   27.5    84    3.9   233     4.8   840.5    0.00 
 351   20:10   0.00   26.0    87    3.7   285     5.7   840.6    0.00 
 351   20:20   0.00   26.4    88    4.1   314     5.4   840.7    0.00 
 351   20:30   0.00   26.3    88    4.1   300     5.5   840.7    0.00 
 351   20:40   0.00   25.2    88    4.0   283     5.5   840.8    0.00 
 351   20:50   0.00   24.3    89    2.5   251     5.3   840.9    0.00 
 351   21:00   0.00   24.9    90    4.0   295     5.0   841.0    0.00 
 351   21:10   0.00   24.6    88    3.8   303     4.8   841.0    0.00 
 351   21:20   0.00   24.5    90    3.8   312     5.3   841.1    0.00 
 351   21:30   0.00   25.3    89    4.4   287     5.8   841.2    0.00 
 351   21:40   0.00   24.8    88    4.6   284     5.7   841.3    0.00 
 351   21:50   0.00   24.3    89    3.8   284     5.2   841.4    0.00 
 351   22:00   0.00   24.2    90    3.7   284     4.5   841.5    0.00 
 351   22:10   0.00   24.2    90    4.2   309     5.9   841.5    0.00 
 351   22:20   0.00   24.3    89    4.0   305     5.1   841.5    0.00 
 351   22:30   0.00   24.2    89    4.4   301     5.6   841.5    0.00 
 351   22:40   0.00   24.1    90    4.3   300     5.6   841.6    0.00 
 351   22:50   0.00   24.7    88    3.7   272     5.6   841.5    0.00 
 351   23:00   0.00   23.7    88    3.5   265     6.4   841.4    0.00 
 351   23:10   0.00   23.5    87    4.2   293     5.5   841.4    0.00 
 351   23:20   0.00   23.0    88    4.8   303     6.1   841.4    0.00 
 351   23:30   0.00   23.0    88    5.2   304     6.5   841.4    0.00 
 351   23:40   0.00   22.7    88    3.1   291     5.3   841.5    0.00 
 351   23:50   0.00   22.1    88    3.2   299     4.7   841.5    0.00 
 352    0:00   0.00   21.8    88    4.4   308     5.2   841.5    0.00 
 352    0:10   0.00   22.4    89    4.6   309     5.3   841.4    0.00 
 352    0:20   0.00   21.9    88    4.4   305     5.3   841.4    0.00 
 352    0:30   0.00   21.8    88    4.4   308     5.6   841.4    0.00 
 352    0:40   0.00   20.8    87    2.1   272     3.9   841.4    0.00 
 352    0:50   0.00   20.9    89    2.3   213     2.9   841.5    0.00 
 352    1:00   0.00   20.4    88    2.4   242     3.0   841.6    0.00 
 352    1:10   0.00   20.6    89    2.6   278     3.3   841.5    0.00 
 352    1:20   0.00   20.9    87    2.6   293     3.9   841.5    0.00 
 352    1:30   0.00   19.8    88    3.2   314     3.9   841.6    0.00 
 352    1:40   0.00   20.8    89    2.4   346     3.4   841.7    0.00 
 352    1:50   0.00   21.2    87    2.6   317     3.2   841.8    0.00 
 352    2:00   0.00   20.1    86    2.3   274     3.2   841.8    0.00 
 352    2:10   0.00   20.6    88    2.0   284     3.3   841.9    0.00 
 352    2:20   0.00   18.8    85    0.9   136     3.4   842.0    0.00 
 352    2:30   0.00   18.8    89    2.3   127     3.4   842.0    0.00 
 352    2:40   0.00   20.7    90    1.0   167     2.3   842.0    0.00 
 352    2:50   0.00   21.5    88    1.8   256     2.9   841.9    0.00 
 352    3:00   0.00   18.6    86    4.0   271     5.0   841.9    0.00 
 352    3:10   0.00   17.6    89    4.2   273     5.6   841.9    0.00 
 352    3:20   0.00   18.0    90    4.5   285     5.3   842.0    0.00 
 352    3:30   0.00   18.8    90    4.9   294     6.3   842.0    0.00 
 352    3:40   0.00   19.1    89    3.5   304     4.4   842.0    0.00 
 352    3:50   0.00   20.0    89    4.9   303     6.3   841.9    0.00 
 352    4:00   0.00   19.7    88    4.7   290     6.0   842.0    0.00 
 352    4:10   0.00   20.2    88    4.1   300     5.7   842.1    0.00 
 352    4:20   0.00   20.4    87    2.5   258     3.1   842.1    0.00 
 352    4:30   0.00   19.8    88    2.8   252     3.5   842.1    0.00 
 352    4:40   0.00   19.4    89    2.6   240     3.6   842.2    0.00 
 352    4:50   0.00   19.1    88    0.4   141     3.6   842.3    0.00 
 352    5:00   0.00   19.9    89    0.2   108     1.0   842.3    0.00 
 352    5:10   0.00   20.8    89    0.4   108     2.3   842.3    0.00 
 352    5:20   0.00   20.9    88    1.9   292     2.5   842.5    0.00 
 352    5:30   0.00   20.9    88    2.3   308     3.3   842.5    0.00 
 352    5:40   0.00   20.8    88    1.9   330     3.1   842.7    0.00 
 352    5:50   0.00   20.7    88    1.9   351     4.9   842.8    0.00 
 352    6:00   0.00   19.7    87    2.4   311     3.9   842.9    0.00 
 352    6:10   0.00   18.8    88    3.4   317     3.9   843.0    0.00 
 352    6:20   0.00   18.5    88    3.6   300     5.3   843.1    0.00 
 352    6:30   0.00   17.9    89    5.1   305     6.2   843.3    0.00 
 352    6:40   0.00   18.7    89    4.6   314     5.8   843.4    0.00 
 352    6:50   0.00   19.5    88    4.4   307     6.0   843.5    0.00 
 352    7:00   0.01   18.9    87    2.3   292     3.7   843.6    0.00 
 352    7:10   0.01   18.8    87    0.7   253     2.0   843.7    0.00 
 352    7:20   0.03   19.1    86    1.8   160     3.2   843.7    0.00 
 352    7:30   0.04   18.4    85    2.0   190     2.9   843.7    0.00 
 352    7:40   0.08   19.4    87    2.0   207     3.0   843.7    0.00 
 352    7:50   0.10   22.7    85    1.8   163     2.9   843.8    0.00 
 352    8:00   0.13   25.4    82    0.1   156     1.1   843.8    0.00 
 352    8:10   0.15   27.2    77    1.3    79     1.9   843.9    0.00 
 352    8:20   0.17   27.9    78    1.1    49     2.3   843.9    0.00 
 352    8:30   0.20   29.4    77    1.6    56     3.1   844.1    0.00 
 352    8:40   0.22   29.8    79    2.4    94     3.9   844.1    0.00 
 352    8:50   0.25   30.6    79    2.4    84     4.2   844.1    0.00 
 352    9:00   0.27   31.7    76    1.7   100     3.3   844.2    0.00 
 352    9:10   0.29   32.7    72    1.6   137     3.4   844.4    0.00 
 352    9:20   0.32   33.9    73    1.0   104     2.6   844.5    0.00 
 352    9:30   0.34   35.1    71    1.0   142     3.7   844.4    0.00 
 352    9:40   0.36   35.7    68    3.7   156     7.1   844.4    0.00 
 352    9:50   0.37   36.0    65    4.9   179     8.8   844.4    0.00 
 352   10:00   0.39   36.9    67    5.4   158     8.9   844.4    0.00 
 352   10:10   0.41   37.2    67    6.0   157     9.3   844.4    0.00 
 352   10:20   0.42   38.3    64    5.4   166     8.7   844.4    0.00 
 352   10:30   0.44   38.8    64    5.7   145     9.1   844.3    0.00 
 352   10:40   0.45   39.2    61    6.0   142     9.6   844.2    0.00 
 352   10:50   0.46   39.4    60    6.4   138    10.5   844.1    0.00 
 352   11:00   0.47   39.7    59    5.4   129     8.6   844.0    0.00 
 352   11:10   0.47   40.1    57    5.6   132     8.0   843.9    0.00 
 352   11:20   0.48   40.7    54    6.2   135     9.0   843.8    0.00 
 352   11:30   0.48   41.1    54    6.0   132     8.5   843.7    0.00 
 352   11:40   0.48   41.5    53    5.5   117     8.3   843.6    0.00 
 352   11:50   0.48   41.5    51    5.7   109     8.9   843.6    0.00 
 352   12:00   0.48   41.8    50    5.3   115     8.6   843.5    0.00 
 352   12:10   0.48   42.2    49    5.3   112     9.0   843.4    0.00 
 352   12:20   0.47   42.5    48    5.5   113     9.5   843.2    0.00 
 352   12:30   0.47   42.9    46    5.0   125     8.6   843.2    0.00 
 352   12:40   0.48   43.0    42    3.8   123     8.3   843.1    0.00 
 352   12:50   0.43   43.3    42    2.6   119     4.7   843.1    0.00 
 352   13:00   0.44   43.4    42    4.3   116     7.3   843.0    0.00 
 352   13:10   0.42   43.7    41    2.8   114     5.2   843.0    0.00 
 352   13:20   0.41   43.9    40    2.9    85     5.4   843.0    0.00 
 352   13:30   0.39   44.5    37    1.7     2     4.7   843.0    0.00 
 352   13:40   0.37   44.4    38    2.7    74     5.0   843.0    0.00 

Return to Snake Valley graphs page.


Western Regional Climate Center,wrcc@dri.edu